Nearby METAR Reports

 

KPBH - Phillips, Wisconsin, USA
Distance from station: SE 13mi, 21km
Updated: 03/08/2021 10:35pm
Mostly cloudy
Mostly cloudy
 Wind from calm
Wind: Calm
Temperature: 30°F , -1°C
Dew Point: 23°F , -5°C
Humidity: 75%
Barometer: 30.23 inHg , 1023.7 hPa
Clouds: Mostly cloudy
Visibility: 10 miles , 16 km
Cloud details: Partly cloudy 10000 ft
Mostly cloudy 12000 ft
2021/03/09 04:35 KPBH 090435Z AUTO 00000KT 10SM SCT100 BKN120 M01/M05 A3023 RMK AO2 T10091052
KRCX - Ladysmith/Rusk, Wisconsin, USA
Distance from station: SW 29mi, 46km
Updated: 03/08/2021 10:35pm

 Wind from calm
Wind: Calm
Temperature: 32°F , 0°C
Dew Point: 27°F , -3°C
Humidity: 80%
Barometer: 30.24 inHg , 1024 hPa
Visibility: 10 miles , 16 km
2021/03/09 04:35 KRCX 090435Z AUTO 00000KT 10SM 00/M03 A3024 RMK AO2 T10031034
 
KD25 - Manitowish Water, Wisconsin, USA
Distance from station: ENE 41mi, 66km
Updated: 03/08/2021 10:15pm
Overcast
Overcast
 Wind from calm
Wind: Calm
Temperature: 28°F , -2°C
Dew Point: 21°F , -6°C
Humidity: 74%
Barometer: 30.24 inHg , 1024 hPa
Clouds: Overcast
Visibility: 10 miles , 16 km
Cloud details: Overcast 11000 ft
2021/03/09 04:15 KD25 090415Z AUTO 00000KT 10SM OVC110 M02/M06 A3024 RMK AO2 T10191062
KHYR - Hayward, Wisconsin, USA
Distance from station: WNW 42mi, 68km
Updated: 03/08/2021 9:53pm
Partly cloudy
Partly cloudy
 Wind from NNE
Wind: NNE 5 mph , 7 km/h
Temperature: 30°F , -1°C
Wind Chill: 25°F , -4°C
Dew Point: 23°F , -5°C
Humidity: 75%
Barometer: 30.21 inHg , 1023 hPa
Clouds: Partly cloudy
Visibility: 10 miles , 16 km
Cloud details: Partly cloudy 12000 ft
2021/03/09 03:53 KHYR 090353Z AUTO 02004KT 10SM SCT120 M01/M05 A3021 RMK AO2 SLP242 T10061050
 
KARV - Minocqua/Woodruf, Wisconsin, USA
Distance from station: E 44mi, 71km
Updated: 03/08/2021 10:35pm
Overcast
Overcast
 Wind from calm
Wind: Calm
Temperature: 32°F , 0°C
Dew Point: 23°F , -5°C
Humidity: 69%
Barometer: 30.24 inHg , 1024 hPa
Clouds: Overcast
Visibility: 10 miles , 16 km
Cloud details: Overcast 11000 ft
2021/03/09 04:35 KARV 090435Z AUTO 00000KT 10SM OVC110 00/M05 A3024 RMK AO2 T10011055
KTKV - Tomahawk Regnl, Wisconsin, USA
Distance from station: ESE 46mi, 74km
Updated: 03/08/2021 10:15pm
Overcast
Overcast
 Wind from calm
Wind: Calm
Temperature: 28°F , -2°C
Dew Point: 21°F , -6°C
Humidity: 74%
Barometer: 30.25 inHg , 1024.4 hPa
Clouds: Overcast
Visibility: 10 miles , 16 km
Cloud details: Overcast 10000 ft
2021/03/09 04:15 KTKV 090415Z AUTO 00000KT 10SM OVC100 M02/M06 A3025 RMK AO2 T10181057 PWINO